Time;durP1;ratioP1;P1;durP2;ratioP2;P2;SDS_P1;SDS_P2;PMS_P1;PMS_P2;Temp;Humidity;BMP_temperature;BMP_pressure;BME280_temperature;BME280_humidity;BME280_pressure;Samples;Min_cycle;Max_cycle;Signal;HPM_P1;HPM_P2
2022/10/03 00:01:50;;;;;;;12.90;4.23;;;12.10;84.90;;;;;;5022376;28;20530;-77
2022/10/03 00:04:32;;;;;;;9.40;5.03;;;12.00;84.70;;;;;;5026303;28;20568;-77
2022/10/03 00:07:11;;;;;;;8.60;5.27;;;11.90;84.80;;;;;;5027701;28;20502;-77
2022/10/03 00:09:59;;;;;;;11.53;5.80;;;11.80;84.90;;;;;;5025128;28;20460;-77
2022/10/03 00:12:47;;;;;;;11.90;5.47;;;11.80;85.00;;;;;;5017797;28;20884;-77
2022/10/03 00:15:21;;;;;;;11.20;5.83;;;11.70;85.00;;;;;;5026416;28;20498;-77
2022/10/03 00:18:01;;;;;;;12.77;6.77;;;11.60;85.00;;;;;;5026862;28;20478;-76
2022/10/03 00:20:41;;;;;;;15.17;6.90;;;11.60;85.00;;;;;;5025944;28;20483;-78
2022/10/03 00:23:14;;;;;;;13.43;6.90;;;11.60;85.00;;;;;;5026706;28;20455;-77
2022/10/03 00:25:55;;;;;;;11.23;6.53;;;11.50;85.00;;;;;;5026361;28;20499;-76
2022/10/03 00:28:45;;;;;;;10.40;6.47;;;11.50;85.00;;;;;;5023446;28;20471;-75
2022/10/03 00:31:15;;;;;;;12.90;8.23;;;11.50;85.00;;;;;;5018743;28;20465;-76
2022/10/03 00:34:00;;;;;;;15.00;7.83;;;11.50;85.20;;;;;;5020641;28;21284;-74
2022/10/03 00:36:38;;;;;;;13.07;7.77;;;11.50;85.20;;;;;;5022582;28;20553;-76
2022/10/03 00:39:21;;;;;;;13.00;8.57;;;11.50;85.20;;;;;;5023206;28;20464;-76
2022/10/03 00:42:42;;;;;;;14.40;8.37;;;11.50;85.20;;;;;;5020563;28;21083;-75
2022/10/03 00:45:44;;;;;;;12.97;7.97;;;11.50;85.20;;;;;;4997460;28;20460;-74
2022/10/03 00:48:35;;;;;;;16.90;9.63;;;11.40;85.20;;;;;;5022436;28;20960;-75
2022/10/03 00:51:19;;;;;;;15.60;9.90;;;11.40;85.20;;;;;;5032984;28;20480;-77
2022/10/03 00:53:58;;;;;;;14.27;8.57;;;11.40;85.20;;;;;;5023588;28;20504;-74
2022/10/03 00:56:53;;;;;;;12.57;8.60;;;11.40;85.00;;;;;;5021857;28;20531;-77
2022/10/03 00:59:33;;;;;;;12.20;7.57;;;11.30;85.00;;;;;;5021462;28;21006;-75
2022/10/03 01:02:25;;;;;;;12.93;8.80;;;11.30;85.20;;;;;;5022502;28;20459;-75
2022/10/03 01:05:00;;;;;;;13.37;8.30;;;11.30;85.00;;;;;;5038088;28;21020;-75
2022/10/03 01:08:06;;;;;;;11.87;7.93;;;11.30;85.00;;;;;;5037942;28;20480;-76
2022/10/03 01:10:45;;;;;;;15.53;8.90;;;11.30;85.20;;;;;;5022071;28;20562;-75
2022/10/03 01:13:26;;;;;;;14.87;9.60;;;11.40;85.20;;;;;;5039285;28;20843;-75
2022/10/03 01:16:06;;;;;;;29.23;11.03;;;11.40;85.40;;;;;;5023935;28;21057;-76
2022/10/03 01:18:47;;;;;;;21.40;9.60;;;11.50;85.20;;;;;;5027416;28;20447;-75
2022/10/03 01:21:28;;;;;;;18.43;10.93;;;11.50;85.20;;;;;;5025514;28;20451;-75
2022/10/03 01:24:25;;;;;;;18.23;10.60;;;11.50;85.20;;;;;;5017132;28;20524;-75
2022/10/03 01:26:58;;;;;;;17.20;9.40;;;11.60;85.20;;;;;;5023525;28;20496;-75
2022/10/03 01:32:32;;;;;;;24.87;10.23;;;11.60;85.00;;;;;;5022209;28;20452;-76
2022/10/03 01:35:11;;;;;;;34.90;10.90;;;11.50;84.50;;;;;;5020951;28;21301;-74
2022/10/03 01:37:50;;;;;;;44.97;11.30;;;11.50;84.50;;;;;;5039783;28;20480;-75
2022/10/03 01:40:26;;;;;;;31.13;10.40;;;11.40;84.40;;;;;;5023577;28;20792;-77
2022/10/03 01:43:03;;;;;;;38.20;11.07;;;11.30;84.50;;;;;;5021615;28;21190;-77
2022/10/03 01:45:44;;;;;;;16.67;9.70;;;11.30;84.40;;;;;;5022330;28;20459;-77
2022/10/03 01:48:32;;;;;;;21.80;10.33;;;11.20;84.70;;;;;;5018386;28;20546;-77
2022/10/03 01:51:07;;;;;;;18.43;8.97;;;11.20;84.70;;;;;;5029352;28;20521;-76
2022/10/03 01:53:46;;;;;;;23.07;9.87;;;11.20;84.60;;;;;;5023441;28;20464;-76
2022/10/03 01:56:25;;;;;;;16.73;8.23;;;11.20;84.60;;;;;;5025078;28;20467;-76
2022/10/03 01:59:02;;;;;;;24.77;10.33;;;11.20;84.60;;;;;;5039758;28;20494;-75
2022/10/03 02:01:44;;;;;;;24.13;10.10;;;11.10;84.70;;;;;;5023086;28;20977;-76
2022/10/03 02:04:21;;;;;;;32.80;16.17;;;11.10;84.70;;;;;;5022224;28;21386;-75
2022/10/03 02:07:00;;;;;;;24.43;12.43;;;11.10;84.60;;;;;;5025373;28;20507;-76
2022/10/03 02:09:36;;;;;;;21.70;12.23;;;11.10;84.70;;;;;;5031663;28;20525;-76
2022/10/03 02:12:16;;;;;;;22.50;12.20;;;11.10;84.80;;;;;;5024432;28;20451;-76
2022/10/03 02:14:53;;;;;;;19.60;11.83;;;11.10;84.80;;;;;;5022337;28;20454;-76
2022/10/03 02:17:29;;;;;;;15.97;10.13;;;11.10;84.80;;;;;;5028581;28;21002;-76
2022/10/03 02:20:06;;;;;;;18.43;9.90;;;11.10;84.80;;;;;;5022387;28;20475;-77
2022/10/03 02:22:41;;;;;;;18.17;9.73;;;11.10;84.90;;;;;;5027262;28;20469;-75
2022/10/03 02:25:22;;;;;;;17.40;9.50;;;11.10;84.70;;;;;;5018969;28;20455;-75
2022/10/03 02:28:13;;;;;;;14.37;8.33;;;11.00;84.60;;;;;;5022551;28;20932;-76
2022/10/03 02:30:56;;;;;;;16.80;9.30;;;11.00;84.70;;;;;;5021485;28;20619;-77
2022/10/03 02:33:55;;;;;;;18.13;9.80;;;11.00;84.60;;;;;;5027254;28;20473;-78
2022/10/03 02:36:48;;;;;;;18.17;10.80;;;11.00;84.50;;;;;;5024887;28;20511;-76
2022/10/03 02:39:43;;;;;;;15.90;10.20;;;11.00;84.70;;;;;;5028358;28;20456;-75
2022/10/03 02:42:36;;;;;;;24.43;9.60;;;11.00;84.80;;;;;;5026351;28;20471;-75
2022/10/03 02:45:33;;;;;;;14.53;8.37;;;11.10;84.70;;;;;;5027939;28;20459;-75
2022/10/03 02:48:42;;;;;;;10.60;6.40;;;11.10;84.70;;;;;;5028222;28;20491;-76
2022/10/03 02:51:43;;;;;;;11.37;7.10;;;11.10;84.50;;;;;;5026020;28;20912;-75
2022/10/03 02:54:51;;;;;;;11.40;6.93;;;11.10;84.40;;;;;;5028098;28;20985;-77
2022/10/03 02:58:00;;;;;;;11.53;7.30;;;11.00;84.40;;;;;;5019250;28;20480;-78
2022/10/03 03:00:50;;;;;;;13.30;6.80;;;11.00;84.30;;;;;;5044426;28;20464;-76
2022/10/03 03:03:47;;;;;;;19.80;6.70;;;11.00;84.30;;;;;;5041203;28;21053;-78
2022/10/03 03:06:41;;;;;;;21.77;7.17;;;11.00;83.90;;;;;;5003280;28;20472;-78
2022/10/03 03:09:44;;;;;;;18.80;6.70;;;10.90;83.60;;;;;;5023836;28;20479;-76
2022/10/03 03:12:50;;;;;;;19.20;7.73;;;10.80;83.70;;;;;;5020816;28;20473;-78
2022/10/03 03:15:55;;;;;;;16.63;8.30;;;10.70;83.50;;;;;;5022131;28;20459;-78
2022/10/03 03:18:33;;;;;;;13.57;7.80;;;10.60;83.50;;;;;;5032582;28;20501;-77
2022/10/03 03:21:21;;;;;;;13.47;7.73;;;10.50;83.70;;;;;;5023209;28;20451;-78
2022/10/03 03:24:12;;;;;;;11.40;6.70;;;10.50;83.70;;;;;;5029766;28;20507;-76
2022/10/03 03:27:06;;;;;;;13.17;7.20;;;10.50;83.70;;;;;;5025308;28;20542;-76
2022/10/03 03:29:42;;;;;;;9.63;6.13;;;10.40;83.70;;;;;;5015921;28;20479;-76
2022/10/03 03:32:18;;;;;;;13.03;7.37;;;10.40;83.60;;;;;;5041593;28;20463;-74
2022/10/03 03:34:55;;;;;;;10.80;6.47;;;10.30;83.60;;;;;;5025847;28;20464;-76
2022/10/03 03:37:30;;;;;;;10.93;6.90;;;10.30;83.70;;;;;;5029311;28;21078;-76
2022/10/03 03:40:12;;;;;;;12.03;6.70;;;10.30;83.80;;;;;;5026441;28;20496;-77
2022/10/03 03:43:03;;;;;;;8.63;5.10;;;10.30;83.90;;;;;;5025640;28;20513;-74
2022/10/03 03:45:42;;;;;;;13.20;5.77;;;10.30;83.60;;;;;;5026699;28;20957;-75
2022/10/03 03:48:26;;;;;;;11.20;6.00;;;10.30;83.50;;;;;;5028527;28;20523;-78
2022/10/03 03:51:15;;;;;;;10.77;6.20;;;10.20;83.50;;;;;;5028448;28;20585;-76
2022/10/03 03:54:18;;;;;;;19.10;7.17;;;10.20;83.40;;;;;;5025300;28;20796;-75
2022/10/03 03:57:13;;;;;;;20.73;7.17;;;10.20;83.50;;;;;;5004495;28;20479;-78
2022/10/03 03:59:59;;;;;;;18.73;6.17;;;10.20;83.40;;;;;;5021237;28;20457;-78
2022/10/03 04:02:40;;;;;;;22.67;7.43;;;10.10;83.20;;;;;;5025952;28;20533;-76
2022/10/03 04:05:18;;;;;;;16.40;7.60;;;10.10;83.20;;;;;;5022381;28;20502;-77
2022/10/03 04:08:11;;;;;;;12.50;6.60;;;10.00;83.30;;;;;;5026748;28;20518;-78
2022/10/03 04:10:50;;;;;;;12.07;6.40;;;10.00;83.30;;;;;;5027147;28;20521;-78
2022/10/03 04:13:35;;;;;;;14.20;7.60;;;10.00;83.30;;;;;;5028962;28;20498;-77
2022/10/03 04:18:56;;;;;;;19.27;7.73;;;10.00;83.30;;;;;;5025679;28;20468;-77
2022/10/03 04:19:18;;;;;;;11.53;6.20;;;9.90;83.20;;;;;;5022317;28;20502;-76
2022/10/03 04:22:10;;;;;;;14.43;7.00;;;9.90;83.20;;;;;;5026302;28;20483;-77
2022/10/03 04:25:14;;;;;;;10.27;5.87;;;9.90;83.20;;;;;;5025039;28;20452;-76
2022/10/03 04:28:09;;;;;;;14.00;6.53;;;9.80;83.30;;;;;;5027838;28;20536;-76
2022/10/03 04:30:54;;;;;;;9.73;5.57;;;9.80;83.20;;;;;;5021756;28;20907;-76
2022/10/03 04:33:40;;;;;;;8.00;4.40;;;9.80;83.20;;;;;;5025166;28;20508;-76
2022/10/03 04:36:33;;;;;;;8.40;4.60;;;9.80;83.10;;;;;;5024316;28;20958;-76
2022/10/03 04:39:09;;;;;;;7.93;4.90;;;9.70;82.90;;;;;;5025632;28;20476;-77
2022/10/03 04:41:44;;;;;;;11.27;6.20;;;9.70;82.90;;;;;;5026119;28;20455;-75
2022/10/03 04:44:26;;;;;;;8.73;5.00;;;9.70;82.80;;;;;;5027686;28;20543;-75
2022/10/03 04:47:01;;;;;;;11.00;6.20;;;9.70;82.80;;;;;;5025854;28;20586;-75
2022/10/03 04:49:37;;;;;;;10.93;5.80;;;9.60;82.90;;;;;;5024386;28;20491;-76
2022/10/03 04:52:21;;;;;;;23.70;7.80;;;9.70;83.00;;;;;;5024657;28;20581;-77
2022/10/03 04:55:01;;;;;;;15.13;7.40;;;9.70;82.90;;;;;;5024640;28;20509;-77
2022/10/03 04:57:38;;;;;;;18.47;7.83;;;9.60;82.70;;;;;;5027812;28;20479;-77
2022/10/03 05:00:22;;;;;;;20.87;7.57;;;9.60;82.70;;;;;;5025906;28;20517;-77
2022/10/03 05:03:01;;;;;;;22.50;9.07;;;9.60;82.60;;;;;;5023641;28;20908;-77
2022/10/03 05:05:46;;;;;;;15.17;6.73;;;9.60;82.70;;;;;;5026139;28;21028;-78
2022/10/03 05:08:38;;;;;;;19.93;8.27;;;9.50;82.70;;;;;;5020487;28;20480;-77
2022/10/03 05:11:20;;;;;;;17.10;8.70;;;9.50;82.70;;;;;;5028093;28;20529;-77
2022/10/03 05:13:59;;;;;;;11.97;6.50;;;9.50;82.90;;;;;;5026818;28;20470;-75
2022/10/03 05:16:39;;;;;;;11.20;6.97;;;9.60;83.10;;;;;;5025572;28;20521;-75
2022/10/03 05:19:37;;;;;;;10.10;6.10;;;9.60;82.90;;;;;;5026735;28;20558;-78
2022/10/03 05:22:16;;;;;;;11.60;6.90;;;9.60;82.80;;;;;;5025342;28;20487;-76
2022/10/03 05:24:50;;;;;;;15.93;8.10;;;9.60;82.80;;;;;;5026653;28;21151;-75
2022/10/03 05:27:26;;;;;;;13.67;7.57;;;9.60;82.70;;;;;;5027092;28;21306;-78
2022/10/03 05:30:03;;;;;;;16.33;6.90;;;9.60;82.70;;;;;;5023772;28;20456;-75
2022/10/03 05:32:38;;;;;;;19.57;7.83;;;9.60;82.60;;;;;;5023651;28;20460;-75
2022/10/03 05:35:31;;;;;;;21.20;7.60;;;9.60;82.60;;;;;;5023722;28;20988;-77
2022/10/03 05:38:30;;;;;;;17.45;8.32;;;9.60;82.60;;;;;;5024590;28;20467;-75
2022/10/03 05:41:04;;;;;;;15.60;8.70;;;9.60;82.70;;;;;;5022302;28;20220;-75
2022/10/03 05:43:46;;;;;;;16.20;8.87;;;9.60;82.70;;;;;;5028170;28;20464;-77
2022/10/03 05:46:22;;;;;;;12.30;7.83;;;9.60;82.70;;;;;;5024617;28;20465;-76
2022/10/03 05:49:00;;;;;;;10.27;6.80;;;9.60;82.70;;;;;;5017095;28;20471;-78
2022/10/03 05:51:50;;;;;;;12.80;6.90;;;9.70;82.70;;;;;;5025053;28;20240;-76
2022/10/03 05:54:49;;;;;;;10.20;6.20;;;9.70;82.60;;;;;;5025241;28;21019;-76
2022/10/03 05:57:43;;;;;;;9.50;5.70;;;9.70;82.50;;;;;;5024703;28;20571;-76
2022/10/03 06:00:22;;;;;;;13.33;6.37;;;9.60;82.50;;;;;;5025233;28;20460;-77
2022/10/03 06:03:04;;;;;;;11.23;6.67;;;9.60;82.50;;;;;;5026552;28;20968;-79
2022/10/03 06:05:43;;;;;;;11.20;6.23;;;9.70;82.70;;;;;;5025691;28;20483;-77
2022/10/03 06:08:44;;;;;;;11.17;7.20;;;9.70;82.80;;;;;;5025980;28;21319;-77
2022/10/03 06:11:34;;;;;;;10.70;7.10;;;9.80;82.80;;;;;;5016060;28;20476;-76
2022/10/03 06:14:33;;;;;;;9.43;5.87;;;9.90;82.70;;;;;;5026145;28;20605;-77
2022/10/03 06:17:26;;;;;;;11.03;5.70;;;9.90;82.60;;;;;;5024237;28;21512;-76
2022/10/03 06:20:03;;;;;;;10.00;5.30;;;10.00;82.60;;;;;;5024800;28;20892;-76
2022/10/03 06:23:13;;;;;;;15.63;7.83;;;10.10;82.60;;;;;;5025296;28;20533;-75
2022/10/03 06:26:18;;;;;;;14.67;8.93;;;10.10;82.70;;;;;;5026914;28;20472;-75
2022/10/03 06:29:27;;;;;;;14.37;7.97;;;10.20;82.70;;;;;;5022554;28;21121;-78
2022/10/03 06:32:27;;;;;;;12.83;7.70;;;10.30;82.60;;;;;;5027261;28;21157;-76
2022/10/03 06:35:37;;;;;;;11.43;6.93;;;10.30;82.50;;;;;;5023161;28;20462;-78
2022/10/03 06:38:53;;;;;;;9.43;6.90;;;10.40;82.50;;;;;;4983826;28;20488;-76
2022/10/03 06:41:44;;;;;;;8.77;5.40;;;10.40;82.50;;;;;;5027150;28;20487;-78
2022/10/03 06:44:32;;;;;;;10.50;6.13;;;10.40;82.50;;;;;;5023356;28;20564;-77
2022/10/03 06:47:27;;;;;;;8.37;5.70;;;10.40;82.60;;;;;;5022699;28;20484;-77
2022/10/03 06:50:26;;;;;;;9.40;6.07;;;10.50;82.60;;;;;;5024942;28;20463;-77
2022/10/03 06:53:20;;;;;;;10.27;7.10;;;10.50;82.60;;;;;;5024659;28;20537;-77
2022/10/03 06:56:02;;;;;;;14.47;7.20;;;10.60;82.70;;;;;;5025610;28;20865;-75
2022/10/03 06:59:09;;;;;;;13.27;7.23;;;10.60;82.70;;;;;;5021949;28;20455;-78
2022/10/03 07:02:26;;;;;;;18.23;7.93;;;10.70;82.80;;;;;;5010633;28;20964;-76
2022/10/03 07:05:35;;;;;;;15.87;8.70;;;10.80;82.90;;;;;;5023264;28;20491;-75
2022/10/03 07:08:35;;;;;;;19.40;10.83;;;10.80;83.00;;;;;;5021932;28;21292;-76
2022/10/03 07:11:31;;;;;;;22.03;11.70;;;10.90;83.20;;;;;;5021617;28;20550;-75
2022/10/03 07:14:38;;;;;;;20.47;10.60;;;11.00;83.40;;;;;;5021998;28;20475;-76
2022/10/03 07:17:21;;;;;;;24.60;11.73;;;11.10;83.50;;;;;;5052714;28;20477;-75
2022/10/03 07:20:31;;;;;;;28.03;11.83;;;11.20;83.60;;;;;;5025096;28;20463;-76
2022/10/03 07:23:40;;;;;;;33.90;12.23;;;11.30;83.70;;;;;;5026738;28;20494;-76
2022/10/03 07:26:49;;;;;;;22.07;11.27;;;11.40;83.80;;;;;;4991831;28;20464;-76
2022/10/03 07:29:30;;;;;;;28.87;12.67;;;11.50;83.90;;;;;;5028184;28;20471;-74
2022/10/03 07:32:29;;;;;;;21.50;12.40;;;11.60;84.00;;;;;;5027429;28;20519;-74
2022/10/03 07:38:56;;;;;;;27.13;11.80;;;11.70;84.10;;;;;;5024860;28;20449;-75
2022/10/03 07:38:58;;;;;;;20.47;11.60;;;11.80;84.20;;;;;;5039154;28;20479;-75
2022/10/03 07:41:44;;;;;;;24.57;12.10;;;11.90;84.30;;;;;;5017291;28;20483;-75
2022/10/03 07:44:51;;;;;;;28.80;14.37;;;11.90;84.30;;;;;;5027941;28;20527;-75
2022/10/03 07:48:00;;;;;;;23.60;11.83;;;12.00;84.30;;;;;;5020716;28;20486;-75
2022/10/03 07:50:50;;;;;;;22.00;12.40;;;12.00;84.50;;;;;;5010764;28;20463;-75
2022/10/03 07:53:56;;;;;;;21.60;12.00;;;12.10;84.60;;;;;;5025677;28;20996;-74
2022/10/03 07:56:48;;;;;;;23.73;12.77;;;12.20;84.70;;;;;;5025982;28;20515;-75
2022/10/03 07:59:46;;;;;;;22.90;12.00;;;12.20;84.80;;;;;;5026927;28;20451;-74
2022/10/03 08:02:40;;;;;;;23.80;12.60;;;12.30;84.80;;;;;;5007466;28;20463;-75
2022/10/03 08:05:25;;;;;;;21.97;13.03;;;12.30;84.90;;;;;;5033125;28;21416;-74
2022/10/03 08:08:13;;;;;;;25.80;12.27;;;12.40;85.10;;;;;;5024958;28;20487;-75
2022/10/03 08:11:20;;;;;;;22.00;12.40;;;12.40;85.00;;;;;;5024884;28;21039;-73
2022/10/03 08:14:06;;;;;;;25.83;12.13;;;12.50;85.20;;;;;;5009947;28;21047;-75
2022/10/03 08:16:55;;;;;;;18.53;11.43;;;12.50;85.20;;;;;;5051779;28;21031;-75
2022/10/03 08:19:54;;;;;;;20.90;11.53;;;12.50;85.40;;;;;;5025836;28;20544;-74
2022/10/03 08:22:40;;;;;;;26.10;11.77;;;12.60;85.40;;;;;;5024429;28;20567;-74
2022/10/03 08:25:26;;;;;;;23.73;12.10;;;12.60;85.30;;;;;;5024167;28;21101;-76
2022/10/03 08:28:30;;;;;;;20.63;11.50;;;12.70;85.40;;;;;;5024754;28;20576;-76
2022/10/03 08:31:15;;;;;;;21.67;12.00;;;12.70;85.50;;;;;;4983490;28;20738;-76
2022/10/03 08:34:15;;;;;;;22.30;11.60;;;12.70;85.70;;;;;;5025898;28;20440;-74
2022/10/03 08:37:05;;;;;;;24.43;11.50;;;12.80;85.70;;;;;;5055981;28;20564;-74
2022/10/03 08:40:33;;;;;;;23.43;12.73;;;12.90;85.80;;;;;;5025587;28;21348;-75
2022/10/03 08:43:37;;;;;;;22.17;11.60;;;13.00;85.90;;;;;;5026417;28;20494;-75
2022/10/03 08:46:37;;;;;;;25.67;10.97;;;13.10;85.80;;;;;;5010883;28;20563;-73
2022/10/03 08:49:36;;;;;;;23.40;11.80;;;13.10;85.80;;;;;;5026497;28;20972;-75
2022/10/03 08:52:21;;;;;;;25.50;11.80;;;13.20;85.80;;;;;;5028494;28;21292;-73
2022/10/03 08:55:31;;;;;;;25.50;9.63;;;13.30;85.90;;;;;;5023522;28;20478;-75
2022/10/03 08:58:17;;;;;;;17.90;9.50;;;13.30;85.90;;;;;;5025257;28;20482;-74
2022/10/03 09:01:14;;;;;;;20.20;8.73;;;13.40;85.90;;;;;;5020773;28;20575;-76
2022/10/03 09:04:15;;;;;;;15.67;8.37;;;13.40;85.90;;;;;;5015227;28;20460;-77
2022/10/03 09:07:07;;;;;;;20.27;8.23;;;13.50;85.90;;;;;;4991664;28;21303;-74
2022/10/03 09:10:33;;;;;;;18.13;7.77;;;13.50;85.90;;;;;;5024540;28;20458;-75
2022/10/03 09:13:31;;;;;;;14.77;7.70;;;13.60;85.90;;;;;;4965846;28;20507;-76
2022/10/03 09:16:30;;;;;;;14.13;8.17;;;13.60;85.90;;;;;;4964573;28;20495;-74
2022/10/03 09:19:23;;;;;;;15.53;8.37;;;13.70;86.00;;;;;;5020987;28;20562;-74
2022/10/03 09:22:33;;;;;;;15.80;8.43;;;13.70;85.90;;;;;;5024868;28;20441;-75
2022/10/03 09:25:19;;;;;;;16.00;8.50;;;13.80;85.80;;;;;;5024376;28;20494;-75
2022/10/03 09:28:28;;;;;;;17.20;8.27;;;13.80;85.90;;;;;;5024283;28;20519;-75
2022/10/03 09:31:07;;;;;;;17.27;7.10;;;13.90;85.80;;;;;;5024643;28;20460;-75
2022/10/03 09:34:13;;;;;;;21.00;7.93;;;13.90;85.80;;;;;;5040255;28;20483;-75
2022/10/03 09:37:14;;;;;;;16.93;7.23;;;14.00;85.80;;;;;;5011389;28;21062;-75
2022/10/03 09:40:15;;;;;;;13.83;7.90;;;14.00;85.80;;;;;;5004349;28;20549;-74
2022/10/03 09:43:19;;;;;;;17.93;7.70;;;14.10;85.80;;;;;;5021289;28;20541;-73
2022/10/03 09:46:17;;;;;;;13.47;7.53;;;14.10;85.80;;;;;;5003034;28;20487;-74
2022/10/03 09:49:23;;;;;;;19.13;7.50;;;14.20;85.70;;;;;;5026844;28;20452;-74
2022/10/03 09:52:09;;;;;;;14.70;6.87;;;14.20;85.40;;;;;;5024435;28;20846;-75
2022/10/03 09:55:11;;;;;;;15.00;7.17;;;14.20;85.30;;;;;;5022580;28;20455;-74
2022/10/03 09:58:14;;;;;;;10.63;5.60;;;14.20;85.30;;;;;;5016432;28;20565;-74
2022/10/03 10:01:10;;;;;;;14.10;5.77;;;14.30;85.10;;;;;;5022655;28;20466;-76
2022/10/03 10:04:25;;;;;;;14.10;7.10;;;14.30;85.20;;;;;;5026197;28;20536;-76
2022/10/03 10:07:57;;;;;;;14.40;6.20;;;14.30;85.10;;;;;;4997000;28;20599;-76
2022/10/03 10:10:52;;;;;;;11.80;6.30;;;14.30;85.00;;;;;;5026285;28;20452;-76
2022/10/03 10:13:51;;;;;;;13.37;5.50;;;14.40;85.00;;;;;;5014018;28;20638;-74
2022/10/03 10:17:04;;;;;;;10.50;4.53;;;14.40;85.00;;;;;;5021909;28;20500;-73
2022/10/03 10:19:47;;;;;;;10.53;5.20;;;14.40;84.70;;;;;;5041085;28;21271;-74
2022/10/03 10:22:43;;;;;;;10.30;5.00;;;14.50;84.80;;;;;;5024027;28;20460;-74
2022/10/03 10:25:25;;;;;;;13.33;6.03;;;14.50;84.70;;;;;;5021377;28;20508;-75
2022/10/03 10:28:37;;;;;;;10.47;5.00;;;14.50;84.50;;;;;;5023323;28;20491;-75
2022/10/03 10:31:41;;;;;;;9.47;5.73;;;14.60;84.40;;;;;;5018845;28;20476;-74
2022/10/03 10:34:48;;;;;;;15.27;6.80;;;14.60;84.30;;;;;;4996703;28;20529;-75
2022/10/03 10:37:55;;;;;;;10.03;5.53;;;14.70;84.10;;;;;;5030082;28;20486;-75
2022/10/03 10:41:14;;;;;;;13.27;5.03;;;14.70;84.00;;;;;;5020595;28;20536;-75
2022/10/03 10:44:20;;;;;;;11.53;5.47;;;14.70;83.60;;;;;;5019028;28;20565;-74
2022/10/03 10:47:12;;;;;;;11.97;5.63;;;14.70;83.40;;;;;;5024565;28;20487;-76
2022/10/03 10:50:08;;;;;;;10.67;4.90;;;14.60;83.50;;;;;;5028011;28;20479;-74
2022/10/03 10:53:14;;;;;;;13.40;5.00;;;14.60;83.50;;;;;;5023009;28;20456;-76
2022/10/03 10:56:19;;;;;;;11.17;5.10;;;14.60;83.40;;;;;;5013541;28;20460;-76
2022/10/03 10:59:37;;;;;;;10.90;5.00;;;14.60;83.50;;;;;;5026534;28;20471;-75
2022/10/03 11:03:04;;;;;;;9.23;4.80;;;14.70;83.40;;;;;;5022885;28;20537;-75
2022/10/03 11:06:09;;;;;;;9.57;4.47;;;14.70;83.40;;;;;;5025924;28;20468;-75
2022/10/03 11:08:55;;;;;;;9.10;3.90;;;14.80;83.10;;;;;;5028303;28;20490;-74
2022/10/03 11:11:58;;;;;;;12.13;3.83;;;14.80;82.80;;;;;;5026482;28;20470;-74
2022/10/03 11:15:24;;;;;;;12.13;4.57;;;14.80;82.80;;;;;;5025411;28;20577;-74
2022/10/03 11:18:45;;;;;;;10.33;4.17;;;14.90;82.70;;;;;;5027550;28;20540;-75
2022/10/03 11:21:58;;;;;;;11.43;4.57;;;14.90;82.70;;;;;;5025360;28;20459;-75
2022/10/03 11:24:58;;;;;;;8.70;4.77;;;14.90;82.70;;;;;;4984483;28;20503;-75
2022/10/03 11:27:53;;;;;;;9.57;3.90;;;14.90;82.60;;;;;;5028730;28;20484;-76
2022/10/03 11:30:48;;;;;;;10.33;4.60;;;14.90;82.40;;;;;;5028364;28;20466;-75
2022/10/03 11:33:54;;;;;;;9.87;4.57;;;14.90;82.30;;;;;;5027201;28;20833;-75
2022/10/03 11:36:58;;;;;;;11.90;5.30;;;14.90;82.10;;;;;;5014551;28;20471;-74
2022/10/03 11:39:38;;;;;;;10.40;4.60;;;14.90;82.00;;;;;;5025251;28;20463;-74
2022/10/03 11:42:24;;;;;;;12.80;4.73;;;14.90;81.90;;;;;;5028180;28;20466;-74
2022/10/03 11:44:58;;;;;;;11.13;4.27;;;14.90;81.70;;;;;;5023287;28;20514;-74
2022/10/03 11:47:46;;;;;;;10.60;4.50;;;14.90;81.80;;;;;;5023871;28;20605;-74
2022/10/03 11:50:37;;;;;;;7.80;4.80;;;14.90;81.60;;;;;;5023462;28;20467;-75
2022/10/03 11:53:23;;;;;;;11.23;4.97;;;14.80;81.60;;;;;;5025436;28;20476;-74
2022/10/03 11:55:58;;;;;;;10.97;4.17;;;14.80;81.60;;;;;;5026742;28;20459;-75
2022/10/03 11:58:42;;;;;;;9.07;4.30;;;14.80;81.50;;;;;;5025606;28;20541;-74
2022/10/03 12:01:27;;;;;;;9.43;4.90;;;14.80;81.50;;;;;;5020301;28;20872;-75
2022/10/03 12:04:08;;;;;;;10.50;4.60;;;14.90;81.40;;;;;;5022699;28;20468;-76
2022/10/03 12:09:47;;;;;;;16.63;4.10;;;14.90;81.30;;;;;;5021684;28;21473;-76
2022/10/03 12:12:26;;;;;;;8.90;3.30;;;14.90;81.20;;;;;;5026236;28;20965;-76
2022/10/03 12:15:01;;;;;;;9.77;3.80;;;14.90;81.20;;;;;;5025961;28;20512;-74
2022/10/03 12:17:34;;;;;;;8.80;4.00;;;14.90;81.20;;;;;;5024448;28;20491;-75
2022/10/03 12:20:15;;;;;;;10.27;3.50;;;15.00;81.30;;;;;;5027149;28;20463;-73
2022/10/03 12:22:50;;;;;;;8.10;3.40;;;15.00;81.20;;;;;;5025113;28;21035;-76
2022/10/03 12:25:22;;;;;;;8.73;3.53;;;15.10;81.10;;;;;;5028938;28;20471;-75
2022/10/03 12:28:00;;;;;;;8.77;4.40;;;15.10;80.90;;;;;;5026175;28;20514;-74
2022/10/03 12:30:38;;;;;;;7.57;3.60;;;15.20;80.70;;;;;;5024856;28;21153;-75
2022/10/03 12:33:38;;;;;;;7.30;3.77;;;15.20;80.70;;;;;;5023831;28;20466;-76
2022/10/03 12:36:14;;;;;;;5.87;3.20;;;15.20;80.50;;;;;;5023280;28;20459;-75
2022/10/03 12:38:54;;;;;;;7.30;3.33;;;15.20;80.60;;;;;;5029201;28;20474;-74
2022/10/03 12:41:57;;;;;;;7.20;3.30;;;15.20;80.60;;;;;;5020931;28;21248;-75
2022/10/03 12:44:39;;;;;;;8.60;3.93;;;15.20;80.60;;;;;;5030538;28;21589;-75
2022/10/03 12:47:29;;;;;;;9.10;3.30;;;15.30;80.60;;;;;;5026646;28;20538;-75
2022/10/03 12:50:34;;;;;;;10.60;3.60;;;15.30;80.40;;;;;;5033869;28;20460;-74
2022/10/03 12:53:29;;;;;;;6.07;2.80;;;15.40;80.40;;;;;;5021793;28;20550;-74
2022/10/03 12:56:06;;;;;;;7.90;2.70;;;15.40;80.30;;;;;;5023937;28;20446;-75
2022/10/03 12:58:49;;;;;;;8.40;3.10;;;15.40;80.10;;;;;;5024173;28;20815;-75
2022/10/03 13:01:27;;;;;;;8.53;2.83;;;15.40;80.00;;;;;;5026838;28;20479;-75
2022/10/03 13:03:59;;;;;;;11.10;2.60;;;15.40;79.90;;;;;;5025649;28;20498;-75
2022/10/03 13:06:36;;;;;;;7.20;2.37;;;15.50;79.60;;;;;;5028187;28;20556;-75
2022/10/03 13:09:37;;;;;;;6.90;2.37;;;15.50;79.60;;;;;;5025452;28;20982;-76
2022/10/03 13:12:15;;;;;;;5.57;2.40;;;15.50;79.40;;;;;;5024025;28;20541;-75
2022/10/03 13:15:33;;;;;;;16.57;3.20;;;15.50;79.10;;;;;;5022422;28;20578;-74
2022/10/03 13:18:12;;;;;;;8.83;2.70;;;15.50;78.80;;;;;;5024301;28;20624;-75
2022/10/03 13:20:49;;;;;;;8.90;2.67;;;15.40;78.50;;;;;;5024761;28;20525;-75
2022/10/03 13:23:24;;;;;;;7.50;2.70;;;15.40;78.60;;;;;;5027826;28;20517;-77
2022/10/03 13:26:03;;;;;;;9.23;3.40;;;15.40;78.70;;;;;;5025891;28;20508;-76
2022/10/03 13:28:52;;;;;;;6.10;2.50;;;15.40;78.30;;;;;;5026656;28;20454;-76
2022/10/03 13:31:24;;;;;;;7.13;2.80;;;15.40;78.50;;;;;;5025244;28;20510;-76
2022/10/03 13:33:57;;;;;;;7.23;2.80;;;15.40;78.30;;;;;;5025456;28;20449;-77
2022/10/03 13:36:30;;;;;;;6.77;3.10;;;15.40;78.50;;;;;;5024363;28;20492;-76
2022/10/03 13:39:15;;;;;;;8.03;2.77;;;15.40;78.50;;;;;;5025066;28;20459;-77
2022/10/03 13:42:04;;;;;;;9.07;3.10;;;15.40;78.20;;;;;;5025073;28;20460;-77
2022/10/03 13:44:38;;;;;;;8.70;2.77;;;15.40;78.20;;;;;;5027768;28;20470;-76
2022/10/03 13:47:21;;;;;;;9.77;3.70;;;15.40;78.20;;;;;;5026198;28;20521;-76
2022/10/03 13:49:55;;;;;;;6.20;3.23;;;15.40;78.20;;;;;;5023913;28;20864;-76
2022/10/03 13:52:33;;;;;;;8.27;3.10;;;15.40;78.20;;;;;;5021705;28;20521;-78
2022/10/03 13:55:13;;;;;;;6.23;2.90;;;15.40;78.20;;;;;;5026442;28;20480;-76
2022/10/03 13:57:50;;;;;;;5.40;2.80;;;15.50;78.00;;;;;;5023749;28;20483;-75
2022/10/03 14:00:21;;;;;;;8.30;3.37;;;15.50;77.90;;;;;;5024452;28;20513;-76
2022/10/03 14:03:10;;;;;;;6.80;2.67;;;15.50;77.90;;;;;;5023478;28;20463;-76
2022/10/03 14:05:55;;;;;;;7.30;3.23;;;15.50;77.80;;;;;;5024632;28;20456;-76
2022/10/03 14:08:39;;;;;;;8.73;3.00;;;15.50;77.70;;;;;;5022364;28;20924;-75
2022/10/03 14:11:22;;;;;;;9.57;3.40;;;15.40;77.50;;;;;;5026113;28;20451;-76
2022/10/03 14:14:12;;;;;;;6.10;2.80;;;15.40;77.60;;;;;;5025370;28;20505;-76
2022/10/03 14:16:46;;;;;;;6.07;2.87;;;15.40;77.40;;;;;;5024602;28;20475;-75
2022/10/03 14:19:26;;;;;;;6.83;2.43;;;15.40;77.50;;;;;;5021265;28;21517;-76
2022/10/03 14:22:23;;;;;;;9.10;3.33;;;15.40;77.50;;;;;;5024834;28;20554;-76
2022/10/03 14:25:02;;;;;;;8.63;3.23;;;15.40;77.40;;;;;;5024337;28;20480;-76
2022/10/03 14:27:42;;;;;;;8.17;2.60;;;15.30;77.50;;;;;;5024975;28;20515;-76
2022/10/03 14:30:15;;;;;;;9.70;2.97;;;15.40;77.50;;;;;;5028280;28;20453;-76
2022/10/03 14:33:05;;;;;;;7.27;2.90;;;15.40;77.40;;;;;;5022848;28;20452;-75
2022/10/03 14:35:42;;;;;;;7.73;2.80;;;15.40;77.40;;;;;;5029835;28;20571;-75
2022/10/03 14:38:56;;;;;;;11.97;3.37;;;15.40;77.40;;;;;;5021128;28;20545;-76
2022/10/03 14:41:20;;;;;;;10.00;3.23;;;15.40;77.40;;;;;;5026309;28;20729;-75